ESGT/THN METAR and TAF weather

Enter ICAO airport designator
Station Type Date Time Source
ESGT METAR 2019/06/24 23:20 UTC NOAA

ESGT 242320Z AUTO 00000KT 9999 OVC160/// 12/11 Q1027


Station Type Date Time Source
ESGT Decoded METAR 2019/06/24 23:20 UTC NOAA

Trollhattan Private , Sweden (ESGT) 58-19N 012-21E
Jun 24, 2019 - 07:20 PM EDT / 2019.06.24 2320 UTC
Wind: Calm:0
Visibility: greater than 7 mile(s):0
Sky conditions: overcast
Temperature: 53 F (12 C)
Dew Point: 51 F (11 C)
Relative Humidity: 93%
Pressure (altimeter): 30.33 in. Hg (1027 hPa)
ob: ESGT 242320Z AUTO 00000KT 9999 OVC160/// 12/11 Q1027
cycle: 23

Station Type Date Time Source
ESGT TAF 2016/08/12 05:58 UTC NOAA

TAF ESGT 120430Z 1205/1224 18007KT 9999 FEW030

Example: see airport list